sensor_id;sensor_type;location;lat;lon;timestamp;pressure;altitude;pressure_sealevel;temperature;humidity
55271;BME280;41132;47.162;9.470;2022-09-01T00:02:14;96634.09;;;15.60;100.00
55271;BME280;41132;47.162;9.470;2022-09-01T00:04:42;96638.91;;;15.57;100.00
55271;BME280;41132;47.162;9.470;2022-09-01T00:07:09;96638.94;;;15.72;100.00
55271;BME280;41132;47.162;9.470;2022-09-01T00:09:35;96629.50;;;15.54;100.00
55271;BME280;41132;47.162;9.470;2022-09-01T00:12:01;96638.09;;;15.56;100.00
55271;BME280;41132;47.162;9.470;2022-09-01T00:14:31;96640.28;;;15.38;100.00
55271;BME280;41132;47.162;9.470;2022-09-01T00:16:59;96634.44;;;15.57;100.00
55271;BME280;41132;47.162;9.470;2022-09-01T00:19:25;96632.97;;;15.55;100.00
55271;BME280;41132;47.162;9.470;2022-09-01T00:21:51;96632.16;;;15.54;100.00
55271;BME280;41132;47.162;9.470;2022-09-01T00:24:18;96634.09;;;15.60;100.00
55271;BME280;41132;47.162;9.470;2022-09-01T00:26:44;96636.34;;;15.63;100.00
55271;BME280;41132;47.162;9.470;2022-09-01T00:29:10;96629.59;;;15.61;100.00
55271;BME280;41132;47.162;9.470;2022-09-01T00:31:35;96640.72;;;15.56;100.00
55271;BME280;41132;47.162;9.470;2022-09-01T00:34:01;96630.91;;;15.35;100.00
55271;BME280;41132;47.162;9.470;2022-09-01T00:36:26;96625.31;;;15.30;100.00
55271;BME280;41132;47.162;9.470;2022-09-01T00:38:52;96629.91;;;15.51;100.00
55271;BME280;41132;47.162;9.470;2022-09-01T00:41:21;96622.56;;;15.53;100.00
55271;BME280;41132;47.162;9.470;2022-09-01T00:43:53;96630.72;;;15.52;100.00
55271;BME280;41132;47.162;9.470;2022-09-01T00:46:20;96628.78;;;15.60;100.00
55271;BME280;41132;47.162;9.470;2022-09-01T00:48:51;96634.44;;;15.42;100.00
55271;BME280;41132;47.162;9.470;2022-09-01T00:51:17;96633.53;;;15.50;100.00
55271;BME280;41132;47.162;9.470;2022-09-01T00:53:43;96624.84;;;15.41;100.00
55271;BME280;41132;47.162;9.470;2022-09-01T00:56:10;96623.84;;;15.28;100.00
55271;BME280;41132;47.162;9.470;2022-09-01T00:58:37;96624.06;;;15.26;100.00
55271;BME280;41132;47.162;9.470;2022-09-01T01:01:05;96633.72;;;15.34;100.00
55271;BME280;41132;47.162;9.470;2022-09-01T01:03:30;96625.03;;;15.25;100.00
55271;BME280;41132;47.162;9.470;2022-09-01T01:05:57;96626.78;;;15.33;100.00
55271;BME280;41132;47.162;9.470;2022-09-01T01:08:31;96632.34;;;15.38;100.00
55271;BME280;41132;47.162;9.470;2022-09-01T01:11:00;96629.72;;;15.38;100.00
55271;BME280;41132;47.162;9.470;2022-09-01T01:13:26;96634.63;;;15.41;100.00
55271;BME280;41132;47.162;9.470;2022-09-01T01:15:55;96634.25;;;15.44;100.00
55271;BME280;41132;47.162;9.470;2022-09-01T01:18:20;96626.88;;;15.39;100.00
55271;BME280;41132;47.162;9.470;2022-09-01T01:20:46;96624.13;;;15.33;100.00
55271;BME280;41132;47.162;9.470;2022-09-01T01:23:47;96620.66;;;15.32;100.00
55271;BME280;41132;47.162;9.470;2022-09-01T01:26:15;96622.94;;;15.20;100.00
55271;BME280;41132;47.162;9.470;2022-09-01T01:28:42;96624.78;;;15.20;100.00
55271;BME280;41132;47.162;9.470;2022-09-01T01:31:16;96614.81;;;15.07;100.00
55271;BME280;41132;47.162;9.470;2022-09-01T01:36:15;96615.94;;;15.13;100.00
55271;BME280;41132;47.162;9.470;2022-09-01T01:38:43;96619.84;;;15.02;100.00
55271;BME280;41132;47.162;9.470;2022-09-01T01:41:12;96623.47;;;15.01;100.00
55271;BME280;41132;47.162;9.470;2022-09-01T01:43:39;96615.47;;;15.09;100.00
55271;BME280;41132;47.162;9.470;2022-09-01T01:46:07;96626.13;;;15.16;100.00
55271;BME280;41132;47.162;9.470;2022-09-01T01:48:37;96624.94;;;15.18;100.00
55271;BME280;41132;47.162;9.470;2022-09-01T01:51:03;96625.50;;;14.99;100.00
55271;BME280;41132;47.162;9.470;2022-09-01T01:53:30;96627.31;;;15.13;100.00
55271;BME280;41132;47.162;9.470;2022-09-01T01:55:56;96621.28;;;15.04;100.00
55271;BME280;41132;47.162;9.470;2022-09-01T01:58:23;96625.97;;;15.17;100.00
55271;BME280;41132;47.162;9.470;2022-09-01T02:00:52;96632.88;;;15.18;100.00
55271;BME280;41132;47.162;9.470;2022-09-01T02:03:20;96632.41;;;15.00;100.00
55271;BME280;41132;47.162;9.470;2022-09-01T02:05:48;96634.13;;;15.08;100.00
55271;BME280;41132;47.162;9.470;2022-09-01T02:08:14;96618.47;;;15.06;100.00
55271;BME280;41132;47.162;9.470;2022-09-01T02:10:42;96629.31;;;15.11;100.00
55271;BME280;41132;47.162;9.470;2022-09-01T02:13:11;96635.91;;;15.15;100.00
55271;BME280;41132;47.162;9.470;2022-09-01T02:15:43;96631.72;;;15.36;100.00
55271;BME280;41132;47.162;9.470;2022-09-01T02:18:18;96635.63;;;15.40;100.00
55271;BME280;41132;47.162;9.470;2022-09-01T02:20:45;96631.16;;;15.40;100.00
55271;BME280;41132;47.162;9.470;2022-09-01T02:23:12;96628.81;;;15.31;100.00
55271;BME280;41132;47.162;9.470;2022-09-01T02:25:41;96628.78;;;15.16;100.00
55271;BME280;41132;47.162;9.470;2022-09-01T02:28:12;96639.28;;;15.24;100.00
55271;BME280;41132;47.162;9.470;2022-09-01T02:30:44;96626.72;;;15.26;100.00
55271;BME280;41132;47.162;9.470;2022-09-01T02:33:12;96625.13;;;15.32;100.00
55271;BME280;41132;47.162;9.470;2022-09-01T02:35:52;96630.16;;;15.41;100.00
55271;BME280;41132;47.162;9.470;2022-09-01T02:38:18;96625.06;;;15.40;100.00
55271;BME280;41132;47.162;9.470;2022-09-01T02:40:46;96622.75;;;15.37;100.00
55271;BME280;41132;47.162;9.470;2022-09-01T02:43:13;96623.50;;;15.31;100.00
55271;BME280;41132;47.162;9.470;2022-09-01T02:45:40;96621.75;;;15.23;100.00
55271;BME280;41132;47.162;9.470;2022-09-01T02:48:09;96614.66;;;15.23;100.00
55271;BME280;41132;47.162;9.470;2022-09-01T02:50:36;96616.03;;;15.34;100.00
55271;BME280;41132;47.162;9.470;2022-09-01T02:53:01;96617.56;;;15.43;100.00
55271;BME280;41132;47.162;9.470;2022-09-01T02:55:31;96610.72;;;15.34;100.00
55271;BME280;41132;47.162;9.470;2022-09-01T02:57:57;96618.38;;;15.14;100.00
55271;BME280;41132;47.162;9.470;2022-09-01T03:00:23;96622.66;;;15.30;100.00
55271;BME280;41132;47.162;9.470;2022-09-01T03:02:59;96620.03;;;15.45;100.00
55271;BME280;41132;47.162;9.470;2022-09-01T03:05:28;96617.78;;;15.42;100.00
55271;BME280;41132;47.162;9.470;2022-09-01T03:07:59;96620.56;;;15.25;100.00
55271;BME280;41132;47.162;9.470;2022-09-01T03:10:31;96615.09;;;15.12;100.00
55271;BME280;41132;47.162;9.470;2022-09-01T03:13:04;96613.81;;;15.23;100.00
55271;BME280;41132;47.162;9.470;2022-09-01T03:15:31;96602.06;;;15.11;100.00
55271;BME280;41132;47.162;9.470;2022-09-01T03:17:58;96608.00;;;15.28;100.00
55271;BME280;41132;47.162;9.470;2022-09-01T03:20:26;96607.63;;;15.16;100.00
55271;BME280;41132;47.162;9.470;2022-09-01T03:22:52;96608.91;;;15.05;100.00
55271;BME280;41132;47.162;9.470;2022-09-01T03:25:18;96605.81;;;15.01;100.00
55271;BME280;41132;47.162;9.470;2022-09-01T03:27:44;96610.38;;;15.22;100.00
55271;BME280;41132;47.162;9.470;2022-09-01T03:30:10;96603.44;;;15.36;100.00
55271;BME280;41132;47.162;9.470;2022-09-01T03:32:36;96597.22;;;15.44;100.00
55271;BME280;41132;47.162;9.470;2022-09-01T03:35:02;96600.88;;;15.58;100.00
55271;BME280;41132;47.162;9.470;2022-09-01T03:37:27;96600.34;;;15.62;100.00
55271;BME280;41132;47.162;9.470;2022-09-01T03:39:53;96600.38;;;15.69;100.00
55271;BME280;41132;47.162;9.470;2022-09-01T03:42:19;96598.41;;;15.71;100.00
55271;BME280;41132;47.162;9.470;2022-09-01T03:44:50;96592.94;;;15.73;100.00
55271;BME280;41132;47.162;9.470;2022-09-01T03:47:16;96599.78;;;15.67;100.00
55271;BME280;41132;47.162;9.470;2022-09-01T03:49:42;96576.06;;;15.44;100.00
55271;BME280;41132;47.162;9.470;2022-09-01T03:52:08;96591.00;;;15.66;100.00
55271;BME280;41132;47.162;9.470;2022-09-01T03:54:36;96574.25;;;15.74;100.00
55271;BME280;41132;47.162;9.470;2022-09-01T03:57:02;96581.06;;;15.69;100.00
55271;BME280;41132;47.162;9.470;2022-09-01T03:59:30;96592.31;;;15.71;100.00
55271;BME280;41132;47.162;9.470;2022-09-01T04:01:56;96583.91;;;15.67;100.00
55271;BME280;41132;47.162;9.470;2022-09-01T04:04:22;96579.50;;;15.59;100.00
55271;BME280;41132;47.162;9.470;2022-09-01T04:06:47;96564.75;;;15.50;100.00
55271;BME280;41132;47.162;9.470;2022-09-01T04:09:13;96568.31;;;15.57;100.00
55271;BME280;41132;47.162;9.470;2022-09-01T04:11:39;96573.03;;;15.62;100.00
55271;BME280;41132;47.162;9.470;2022-09-01T04:14:09;96580.63;;;15.65;100.00
55271;BME280;41132;47.162;9.470;2022-09-01T04:16:34;96582.41;;;15.64;100.00
55271;BME280;41132;47.162;9.470;2022-09-01T04:19:22;96582.59;;;15.78;100.00
55271;BME280;41132;47.162;9.470;2022-09-01T04:21:59;96577.69;;;15.75;100.00
55271;BME280;41132;47.162;9.470;2022-09-01T04:24:26;96584.72;;;15.68;100.00
55271;BME280;41132;47.162;9.470;2022-09-01T04:26:56;96583.19;;;15.58;100.00
55271;BME280;41132;47.162;9.470;2022-09-01T04:29:23;96581.53;;;15.57;100.00
55271;BME280;41132;47.162;9.470;2022-09-01T04:31:52;96592.56;;;15.61;100.00
55271;BME280;41132;47.162;9.470;2022-09-01T04:34:21;96596.66;;;15.63;100.00
55271;BME280;41132;47.162;9.470;2022-09-01T04:36:49;96593.00;;;15.64;100.00
55271;BME280;41132;47.162;9.470;2022-09-01T04:39:17;96594.94;;;15.71;100.00
55271;BME280;41132;47.162;9.470;2022-09-01T04:41:44;96595.50;;;15.51;100.00
55271;BME280;41132;47.162;9.470;2022-09-01T04:44:11;96586.72;;;15.51;100.00
55271;BME280;41132;47.162;9.470;2022-09-01T04:46:39;96590.81;;;15.53;100.00
55271;BME280;41132;47.162;9.470;2022-09-01T04:49:08;96596.09;;;15.68;100.00
55271;BME280;41132;47.162;9.470;2022-09-01T04:51:43;96597.25;;;15.74;100.00
55271;BME280;41132;47.162;9.470;2022-09-01T04:54:10;96586.38;;;15.54;100.00
55271;BME280;41132;47.162;9.470;2022-09-01T04:56:44;96593.31;;;15.55;100.00
55271;BME280;41132;47.162;9.470;2022-09-01T04:59:11;96596.97;;;15.54;100.00
55271;BME280;41132;47.162;9.470;2022-09-01T05:01:38;96587.09;;;15.48;100.00
55271;BME280;41132;47.162;9.470;2022-09-01T05:04:14;96598.88;;;15.45;100.00
55271;BME280;41132;47.162;9.470;2022-09-01T05:06:43;96594.78;;;15.42;100.00
55271;BME280;41132;47.162;9.470;2022-09-01T05:09:10;96604.44;;;15.50;100.00
55271;BME280;41132;47.162;9.470;2022-09-01T05:11:38;96593.13;;;15.41;100.00
55271;BME280;41132;47.162;9.470;2022-09-01T05:14:04;96587.28;;;15.46;100.00
55271;BME280;41132;47.162;9.470;2022-09-01T05:16:32;96601.88;;;15.57;100.00
55271;BME280;41132;47.162;9.470;2022-09-01T05:18:58;96603.88;;;15.55;100.00
55271;BME280;41132;47.162;9.470;2022-09-01T05:21:26;96596.41;;;15.58;100.00
55271;BME280;41132;47.162;9.470;2022-09-01T05:23:57;96598.22;;;15.73;100.00
55271;BME280;41132;47.162;9.470;2022-09-01T05:26:27;96599.69;;;15.60;100.00
55271;BME280;41132;47.162;9.470;2022-09-01T05:28:58;96603.13;;;15.76;100.00
55271;BME280;41132;47.162;9.470;2022-09-01T05:31:26;96602.78;;;15.79;100.00
55271;BME280;41132;47.162;9.470;2022-09-01T05:33:53;96606.84;;;15.96;100.00
55271;BME280;41132;47.162;9.470;2022-09-01T05:36:22;96597.25;;;15.95;100.00
55271;BME280;41132;47.162;9.470;2022-09-01T05:38:48;96598.91;;;15.96;100.00
55271;BME280;41132;47.162;9.470;2022-09-01T05:41:16;96606.84;;;15.96;100.00
55271;BME280;41132;47.162;9.470;2022-09-01T05:43:44;96600.81;;;16.02;100.00
55271;BME280;41132;47.162;9.470;2022-09-01T05:46:15;96607.94;;;16.02;100.00
55271;BME280;41132;47.162;9.470;2022-09-01T05:48:42;96599.81;;;16.03;100.00
55271;BME280;41132;47.162;9.470;2022-09-01T05:51:09;96607.13;;;16.23;100.00
55271;BME280;41132;47.162;9.470;2022-09-01T05:53:34;96599.81;;;16.03;100.00
55271;BME280;41132;47.162;9.470;2022-09-01T05:56:00;96605.34;;;16.08;100.00
55271;BME280;41132;47.162;9.470;2022-09-01T05:58:31;96607.50;;;16.20;100.00
55271;BME280;41132;47.162;9.470;2022-09-01T06:00:57;96609.00;;;16.07;100.00
55271;BME280;41132;47.162;9.470;2022-09-01T06:03:23;96608.09;;;16.00;100.00
55271;BME280;41132;47.162;9.470;2022-09-01T06:05:51;96609.38;;;16.04;100.00
55271;BME280;41132;47.162;9.470;2022-09-01T06:08:20;96604.34;;;16.10;100.00
55271;BME280;41132;47.162;9.470;2022-09-01T06:10:45;96596.97;;;16.05;100.00
55271;BME280;41132;47.162;9.470;2022-09-01T06:13:12;96597.59;;;16.07;100.00
55271;BME280;41132;47.162;9.470;2022-09-01T06:15:40;96606.56;;;16.06;100.00
55271;BME280;41132;47.162;9.470;2022-09-01T06:18:08;96609.91;;;16.15;100.00
55271;BME280;41132;47.162;9.470;2022-09-01T06:20:40;96607.00;;;16.31;100.00
55271;BME280;41132;47.162;9.470;2022-09-01T06:23:07;96605.84;;;16.19;100.00
55271;BME280;41132;47.162;9.470;2022-09-01T06:25:36;96611.16;;;16.19;100.00
55271;BME280;41132;47.162;9.470;2022-09-01T06:28:01;96607.81;;;16.10;100.00
55271;BME280;41132;47.162;9.470;2022-09-01T06:30:28;96601.25;;;16.06;100.00
55271;BME280;41132;47.162;9.470;2022-09-01T06:32:54;96609.53;;;16.18;100.00
55271;BME280;41132;47.162;9.470;2022-09-01T06:35:23;96614.25;;;16.22;100.00
55271;BME280;41132;47.162;9.470;2022-09-01T06:37:54;96610.91;;;16.14;100.00
55271;BME280;41132;47.162;9.470;2022-09-01T06:40:21;96600.38;;;15.99;100.00
55271;BME280;41132;47.162;9.470;2022-09-01T06:42:50;96602.88;;;16.07;100.00
55271;BME280;41132;47.162;9.470;2022-09-01T06:45:18;96604.63;;;16.15;100.00
55271;BME280;41132;47.162;9.470;2022-09-01T06:47:45;96608.88;;;16.16;100.00
55271;BME280;41132;47.162;9.470;2022-09-01T06:50:13;96611.06;;;16.12;100.00
55271;BME280;41132;47.162;9.470;2022-09-01T06:52:43;96612.31;;;16.31;100.00
55271;BME280;41132;47.162;9.470;2022-09-01T06:55:10;96608.47;;;16.34;100.00
55271;BME280;41132;47.162;9.470;2022-09-01T06:57:37;96611.50;;;16.31;100.00
55271;BME280;41132;47.162;9.470;2022-09-01T07:00:09;96614.00;;;16.39;100.00
55271;BME280;41132;47.162;9.470;2022-09-01T07:02:42;96615.16;;;16.51;100.00
55271;BME280;41132;47.162;9.470;2022-09-01T07:05:09;96616.59;;;16.32;100.00
55271;BME280;41132;47.162;9.470;2022-09-01T07:07:34;96626.88;;;16.42;100.00
55271;BME280;41132;47.162;9.470;2022-09-01T07:10:00;96625.88;;;16.43;100.00
55271;BME280;41132;47.162;9.470;2022-09-01T07:12:25;96602.13;;;16.35;100.00
55271;BME280;41132;47.162;9.470;2022-09-01T07:14:51;96617.81;;;16.51;100.00
55271;BME280;41132;47.162;9.470;2022-09-01T07:17:16;96618.09;;;16.41;100.00
55271;BME280;41132;47.162;9.470;2022-09-01T07:19:43;96628.56;;;16.49;100.00
55271;BME280;41132;47.162;9.470;2022-09-01T07:22:09;96615.91;;;16.45;100.00
55271;BME280;41132;47.162;9.470;2022-09-01T07:24:35;96627.50;;;16.44;100.00
55271;BME280;41132;47.162;9.470;2022-09-01T07:27:00;96627.94;;;16.26;100.00
55271;BME280;41132;47.162;9.470;2022-09-01T07:29:25;96622.66;;;16.26;100.00
55271;BME280;41132;47.162;9.470;2022-09-01T07:31:52;96624.41;;;16.40;100.00
55271;BME280;41132;47.162;9.470;2022-09-01T07:34:20;96637.47;;;16.42;100.00
55271;BME280;41132;47.162;9.470;2022-09-01T07:36:46;96631.84;;;16.30;100.00
55271;BME280;41132;47.162;9.470;2022-09-01T07:39:12;96634.25;;;16.46;100.00
55271;BME280;41132;47.162;9.470;2022-09-01T07:41:39;96626.34;;;16.75;100.00
55271;BME280;41132;47.162;9.470;2022-09-01T07:44:07;96627.91;;;16.69;100.00
55271;BME280;41132;47.162;9.470;2022-09-01T07:46:35;96632.22;;;16.70;100.00
55271;BME280;41132;47.162;9.470;2022-09-01T07:49:01;96632.38;;;16.83;100.00
55271;BME280;41132;47.162;9.470;2022-09-01T07:51:28;96634.47;;;16.73;100.00
55271;BME280;41132;47.162;9.470;2022-09-01T07:53:55;96638.22;;;16.79;100.00
55271;BME280;41132;47.162;9.470;2022-09-01T07:56:22;96633.88;;;16.93;100.00
55271;BME280;41132;47.162;9.470;2022-09-01T07:58:49;96647.84;;;17.08;100.00
55271;BME280;41132;47.162;9.470;2022-09-01T08:01:19;96643.66;;;17.20;100.00
55271;BME280;41132;47.162;9.470;2022-09-01T08:03:49;96637.63;;;17.05;100.00
55271;BME280;41132;47.162;9.470;2022-09-01T08:06:17;96637.56;;;16.98;100.00
55271;BME280;41132;47.162;9.470;2022-09-01T08:08:44;96634.06;;;17.19;100.00
55271;BME280;41132;47.162;9.470;2022-09-01T08:11:15;96639.44;;;17.32;100.00
55271;BME280;41132;47.162;9.470;2022-09-01T08:13:41;96640.09;;;17.41;100.00
55271;BME280;41132;47.162;9.470;2022-09-01T08:16:07;96638.25;;;17.35;100.00
55271;BME280;41132;47.162;9.470;2022-09-01T08:18:32;96633.81;;;17.14;100.00
55271;BME280;41132;47.162;9.470;2022-09-01T08:20:58;96640.22;;;16.98;100.00
55271;BME280;41132;47.162;9.470;2022-09-01T08:23:23;96640.69;;;16.80;100.00
55271;BME280;41132;47.162;9.470;2022-09-01T08:25:51;96624.03;;;16.86;100.00
55271;BME280;41132;47.162;9.470;2022-09-01T08:28:16;96640.53;;;17.10;100.00
55271;BME280;41132;47.162;9.470;2022-09-01T08:30:43;96648.59;;;17.30;100.00
55271;BME280;41132;47.162;9.470;2022-09-01T08:33:09;96652.38;;;17.42;100.00
55271;BME280;41132;47.162;9.470;2022-09-01T08:35:47;96648.56;;;17.23;100.00
55271;BME280;41132;47.162;9.470;2022-09-01T08:38:12;96643.16;;;17.38;100.00
55271;BME280;41132;47.162;9.470;2022-09-01T08:40:39;96652.47;;;17.27;100.00
55271;BME280;41132;47.162;9.470;2022-09-01T08:45:55;96653.63;;;17.53;100.00
55271;BME280;41132;47.162;9.470;2022-09-01T08:50:59;96644.91;;;17.94;100.00
55271;BME280;41132;47.162;9.470;2022-09-01T08:53:35;96647.00;;;18.19;100.00
55271;BME280;41132;47.162;9.470;2022-09-01T08:56:03;96649.81;;;17.97;100.00
55271;BME280;41132;47.162;9.470;2022-09-01T08:58:30;96647.59;;;18.14;100.00
55271;BME280;41132;47.162;9.470;2022-09-01T09:01:00;96647.94;;;17.91;100.00
55271;BME280;41132;47.162;9.470;2022-09-01T09:09:15;96640.72;;;18.26;100.00
55271;BME280;41132;47.162;9.470;2022-09-01T09:17:01;96639.22;;;18.10;100.00
55271;BME280;41132;47.162;9.470;2022-09-01T09:19:31;96637.56;;;18.09;100.00
55271;BME280;41132;47.162;9.470;2022-09-01T09:22:00;96638.59;;;18.02;100.00
55271;BME280;41132;47.162;9.470;2022-09-01T09:27:26;96636.53;;;17.97;100.00
55271;BME280;41132;47.162;9.470;2022-09-01T09:30:19;96628.03;;;18.28;100.00
55271;BME280;41132;47.162;9.470;2022-09-01T09:32:55;96621.09;;;18.34;100.00
55271;BME280;41132;47.162;9.470;2022-09-01T09:37:51;96622.34;;;18.51;100.00
55271;BME280;41132;47.162;9.470;2022-09-01T09:40:20;96625.63;;;18.73;100.00
55271;BME280;41132;47.162;9.470;2022-09-01T09:47:46;96621.50;;;18.24;100.00
55271;BME280;41132;47.162;9.470;2022-09-01T09:50:35;96627.97;;;18.02;100.00
55271;BME280;41132;47.162;9.470;2022-09-01T09:56:02;96629.16;;;17.92;100.00
55271;BME280;41132;47.162;9.470;2022-09-01T09:58:35;96622.84;;;18.00;100.00
55271;BME280;41132;47.162;9.470;2022-09-01T10:03:51;96610.66;;;18.39;100.00
55271;BME280;41132;47.162;9.470;2022-09-01T10:06:33;96612.97;;;18.49;100.00
55271;BME280;41132;47.162;9.470;2022-09-01T10:09:02;96609.09;;;18.71;100.00
55271;BME280;41132;47.162;9.470;2022-09-01T10:11:42;96610.13;;;19.10;100.00
55271;BME280;41132;47.162;9.470;2022-09-01T10:14:20;96605.81;;;18.89;100.00
55271;BME280;41132;47.162;9.470;2022-09-01T10:16:52;96616.44;;;19.03;100.00
55271;BME280;41132;47.162;9.470;2022-09-01T10:19:21;96603.53;;;19.26;100.00
55271;BME280;41132;47.162;9.470;2022-09-01T10:21:47;96605.81;;;19.09;100.00
55271;BME280;41132;47.162;9.470;2022-09-01T10:24:31;96603.56;;;18.99;100.00
55271;BME280;41132;47.162;9.470;2022-09-01T10:27:16;96598.44;;;19.18;100.00
55271;BME280;41132;47.162;9.470;2022-09-01T10:29:46;96598.84;;;19.15;100.00
55271;BME280;41132;47.162;9.470;2022-09-01T10:32:20;96590.88;;;19.08;100.00
55271;BME280;41132;47.162;9.470;2022-09-01T10:34:47;96596.97;;;19.35;100.00
55271;BME280;41132;47.162;9.470;2022-09-01T10:37:13;96583.09;;;19.20;100.00
55271;BME280;41132;47.162;9.470;2022-09-01T10:40:18;96591.06;;;19.27;100.00
55271;BME280;41132;47.162;9.470;2022-09-01T10:42:46;96587.13;;;19.43;100.00
55271;BME280;41132;47.162;9.470;2022-09-01T10:48:15;96585.13;;;19.18;100.00
55271;BME280;41132;47.162;9.470;2022-09-01T10:50:43;96585.69;;;19.40;100.00
55271;BME280;41132;47.162;9.470;2022-09-01T10:56:15;96584.06;;;19.32;100.00
55271;BME280;41132;47.162;9.470;2022-09-01T10:59:03;96592.47;;;19.29;100.00
55271;BME280;41132;47.162;9.470;2022-09-01T11:06:59;96587.84;;;19.76;100.00
55271;BME280;41132;47.162;9.470;2022-09-01T11:09:42;96579.19;;;19.23;100.00
55271;BME280;41132;47.162;9.470;2022-09-01T11:14:53;96587.44;;;19.01;100.00
55271;BME280;41132;47.162;9.470;2022-09-01T11:17:29;96580.69;;;18.98;100.00
55271;BME280;41132;47.162;9.470;2022-09-01T11:31:15;96578.75;;;19.26;100.00
55271;BME280;41132;47.162;9.470;2022-09-01T11:33:49;96576.91;;;19.39;100.00
55271;BME280;41132;47.162;9.470;2022-09-01T11:38:56;96576.09;;;19.32;100.00
55271;BME280;41132;47.162;9.470;2022-09-01T11:41:30;96577.31;;;19.30;100.00
55271;BME280;41132;47.162;9.470;2022-09-01T11:43:59;96567.56;;;19.10;100.00
55271;BME280;41132;47.162;9.470;2022-09-01T11:46:31;96579.81;;;19.25;100.00
55271;BME280;41132;47.162;9.470;2022-09-01T11:49:00;96573.03;;;19.35;100.00
55271;BME280;41132;47.162;9.470;2022-09-01T11:51:44;96566.63;;;19.50;100.00
55271;BME280;41132;47.162;9.470;2022-09-01T11:54:11;96565.34;;;19.59;100.00
55271;BME280;41132;47.162;9.470;2022-09-01T11:56:37;96554.25;;;19.75;100.00
55271;BME280;41132;47.162;9.470;2022-09-01T11:59:03;96559.13;;;19.92;100.00
55271;BME280;41132;47.162;9.470;2022-09-01T12:03:53;96567.69;;;19.94;100.00
55271;BME280;41132;47.162;9.470;2022-09-01T12:06:22;96566.16;;;19.73;100.00
55271;BME280;41132;47.162;9.470;2022-09-01T12:09:00;96565.44;;;19.32;100.00
55271;BME280;41132;47.162;9.470;2022-09-01T12:11:29;96569.59;;;19.15;100.00
55271;BME280;41132;47.162;9.470;2022-09-01T12:16:24;96564.19;;;19.41;100.00
55271;BME280;41132;47.162;9.470;2022-09-01T12:18:52;96559.28;;;19.45;100.00
55271;BME280;41132;47.162;9.470;2022-09-01T12:21:39;96560.72;;;19.41;100.00
55271;BME280;41132;47.162;9.470;2022-09-01T12:24:17;96563.34;;;19.48;100.00
55271;BME280;41132;47.162;9.470;2022-09-01T12:26:44;96555.81;;;19.45;100.00
55271;BME280;41132;47.162;9.470;2022-09-01T12:29:12;96552.72;;;19.41;100.00
55271;BME280;41132;47.162;9.470;2022-09-01T12:31:42;96551.09;;;19.47;100.00
55271;BME280;41132;47.162;9.470;2022-09-01T12:37:22;96542.84;;;19.55;100.00
55271;BME280;41132;47.162;9.470;2022-09-01T12:39:54;96543.63;;;19.69;100.00
55271;BME280;41132;47.162;9.470;2022-09-01T12:42:31;96552.47;;;19.69;100.00
55271;BME280;41132;47.162;9.470;2022-09-01T12:45:05;96549.59;;;19.57;100.00
55271;BME280;41132;47.162;9.470;2022-09-01T12:49:58;96552.22;;;19.64;100.00
55271;BME280;41132;47.162;9.470;2022-09-01T12:52:25;96553.91;;;19.58;100.00
55271;BME280;41132;47.162;9.470;2022-09-01T12:55:11;96552.66;;;19.61;100.00
55271;BME280;41132;47.162;9.470;2022-09-01T12:57:53;96531.78;;;19.58;100.00
55271;BME280;41132;47.162;9.470;2022-09-01T13:00:25;96538.91;;;19.64;100.00
55271;BME280;41132;47.162;9.470;2022-09-01T13:03:14;96539.97;;;19.63;100.00
55271;BME280;41132;47.162;9.470;2022-09-01T13:05:50;96532.59;;;19.72;100.00
55271;BME280;41132;47.162;9.470;2022-09-01T13:08:21;96543.84;;;19.67;100.00
55271;BME280;41132;47.162;9.470;2022-09-01T13:10:56;96541.41;;;19.59;100.00
55271;BME280;41132;47.162;9.470;2022-09-01T13:13:24;96542.44;;;19.58;100.00
55271;BME280;41132;47.162;9.470;2022-09-01T13:15:53;96529.94;;;19.58;100.00
55271;BME280;41132;47.162;9.470;2022-09-01T13:18:21;96537.69;;;19.67;100.00
55271;BME280;41132;47.162;9.470;2022-09-01T13:20:47;96536.25;;;19.71;100.00
55271;BME280;41132;47.162;9.470;2022-09-01T13:23:13;96535.84;;;19.74;100.00
55271;BME280;41132;47.162;9.470;2022-09-01T13:25:39;96537.03;;;19.78;100.00
55271;BME280;41132;47.162;9.470;2022-09-01T13:28:06;96522.09;;;19.77;99.63
55271;BME280;41132;47.162;9.470;2022-09-01T13:30:32;96526.00;;;19.74;100.00
55271;BME280;41132;47.162;9.470;2022-09-01T13:32:58;96520.03;;;19.79;100.00
55271;BME280;41132;47.162;9.470;2022-09-01T13:35:24;96513.69;;;19.80;100.00
55271;BME280;41132;47.162;9.470;2022-09-01T13:37:49;96518.00;;;19.81;100.00
55271;BME280;41132;47.162;9.470;2022-09-01T13:40:17;96517.34;;;19.86;100.00
55271;BME280;41132;47.162;9.470;2022-09-01T13:42:53;96513.69;;;19.80;100.00
55271;BME280;41132;47.162;9.470;2022-09-01T13:45:21;96510.81;;;19.81;100.00
55271;BME280;41132;47.162;9.470;2022-09-01T13:47:49;96505.28;;;19.83;100.00
55271;BME280;41132;47.162;9.470;2022-09-01T13:50:17;96511.22;;;19.85;100.00
55271;BME280;41132;47.162;9.470;2022-09-01T13:52:45;96504.47;;;19.83;100.00
55271;BME280;41132;47.162;9.470;2022-09-01T13:55:14;96503.59;;;19.89;100.00
55271;BME280;41132;47.162;9.470;2022-09-01T13:57:40;96499.94;;;19.83;98.94
55271;BME280;41132;47.162;9.470;2022-09-01T14:00:14;96510.97;;;19.87;99.62
55271;BME280;41132;47.162;9.470;2022-09-01T14:02:47;96503.03;;;19.80;99.32
55271;BME280;41132;47.162;9.470;2022-09-01T14:05:19;96504.28;;;19.77;100.00
55271;BME280;41132;47.162;9.470;2022-09-01T14:07:45;96498.53;;;19.80;100.00
55271;BME280;41132;47.162;9.470;2022-09-01T14:10:11;96500.75;;;19.84;100.00
55271;BME280;41132;47.162;9.470;2022-09-01T14:12:38;96505.00;;;19.91;100.00
55271;BME280;41132;47.162;9.470;2022-09-01T14:15:07;96504.81;;;19.93;100.00